createdAt,value
2023-03-21T00:01:20.523Z,30.06
2023-03-21T00:02:52.649Z,30.43
2023-03-21T00:04:25.693Z,30.21
2023-03-21T00:05:57.321Z,30.04
2023-03-21T00:07:28.976Z,30.34
2023-03-21T00:09:00.556Z,30.17
2023-03-21T00:10:41.828Z,30.11
2023-03-21T00:12:16.965Z,30.12
2023-03-21T00:13:52.107Z,29.98
2023-03-21T00:15:40.022Z,30.42
2023-03-21T00:17:20.929Z,30.00
2023-03-21T00:19:02.220Z,30.09
2023-03-21T00:20:40.602Z,30.07
2023-03-21T00:22:17.304Z,30.13
2023-03-21T00:23:49.599Z,30.25
2023-03-21T00:25:21.329Z,30.12
2023-03-21T00:26:53.676Z,30.35
2023-03-21T00:28:35.256Z,30.29
2023-03-21T00:30:12.816Z,30.33
2023-03-21T00:31:49.070Z,30.45
2023-03-21T00:33:31.396Z,30.40
2023-03-21T00:37:36.605Z,30.63
2023-03-21T00:39:08.607Z,30.40
2023-03-21T00:40:48.747Z,30.39
2023-03-21T00:42:21.807Z,30.42
2023-03-21T00:43:55.721Z,30.83
2023-03-21T00:45:27.384Z,31.09
2023-03-21T00:47:07.549Z,30.85
2023-03-21T00:48:39.534Z,30.95
2023-03-21T00:50:12.018Z,31.24
2023-03-21T00:51:43.982Z,30.90
2023-03-21T00:53:15.705Z,31.15
2023-03-21T00:54:47.878Z,31.17
2023-03-21T00:56:19.485Z,31.23
2023-03-21T00:58:01.123Z,31.09
2023-03-21T00:59:33.513Z,31.59
2023-03-21T01:01:07.133Z,31.16
2023-03-21T01:03:17.436Z,31.32
2023-03-21T01:04:54.248Z,31.27
2023-03-21T01:06:27.540Z,30.87
2023-03-21T01:08:00.417Z,31.21
2023-03-21T01:09:37.880Z,31.32
2023-03-21T01:16:08.295Z,31.25
2023-03-21T01:17:39.862Z,31.47
2023-03-21T01:19:25.034Z,31.06
2023-03-21T01:20:58.407Z,31.31
2023-03-21T01:22:30.103Z,31.13
2023-03-21T01:24:01.950Z,31.46
2023-03-21T01:25:35.679Z,31.73
2023-03-21T01:27:07.181Z,31.87
2023-03-21T01:28:39.069Z,31.61
2023-03-21T01:30:20.278Z,31.91
2023-03-21T01:31:55.863Z,31.92
2023-03-21T01:33:28.368Z,32.35
2023-03-21T01:34:59.874Z,32.15
2023-03-21T01:36:31.926Z,32.16
2023-03-21T01:38:03.541Z,32.52
2023-03-21T01:39:35.479Z,32.35
2023-03-21T01:41:18.614Z,32.59
2023-03-21T01:42:51.443Z,32.27
2023-03-21T01:44:22.904Z,32.87
2023-03-21T01:46:06.703Z,32.42
2023-03-21T01:47:38.430Z,32.58
2023-03-21T01:49:34.481Z,32.63
2023-03-21T01:51:06.711Z,32.84
2023-03-21T01:52:39.105Z,32.37
2023-03-21T01:54:14.522Z,33.00
2023-03-21T01:55:48.173Z,32.76
2023-03-21T01:57:22.568Z,32.59
2023-03-21T01:58:57.978Z,32.63
2023-03-21T02:00:29.722Z,32.81
2023-03-21T02:02:01.490Z,32.58
2023-03-21T02:03:38.729Z,32.39
2023-03-21T02:05:10.459Z,32.62
2023-03-21T02:06:46.952Z,33.14
2023-03-21T02:08:18.593Z,33.42
2023-03-21T02:09:50.327Z,33.23
2023-03-21T02:11:22.489Z,33.24
2023-03-21T02:12:55.850Z,33.49
2023-03-21T02:14:29.578Z,33.32
2023-03-21T02:16:15.653Z,33.50
2023-03-21T02:17:49.952Z,33.55
2023-03-21T02:19:31.898Z,33.31
2023-03-21T02:21:15.034Z,33.01
2023-03-21T02:23:05.097Z,33.36
2023-03-21T02:24:41.078Z,33.58
2023-03-21T02:26:19.834Z,33.04
2023-03-21T02:27:52.990Z,33.10
2023-03-21T02:29:44.887Z,33.29
2023-03-21T02:31:48.766Z,33.33
2023-03-21T02:38:36.924Z,33.49
2023-03-21T02:40:22.930Z,33.90
2023-03-21T02:42:14.078Z,33.83
2023-03-21T02:43:47.646Z,34.32
2023-03-21T02:45:54.506Z,34.35
2023-03-21T02:47:44.294Z,34.19
2023-03-21T02:49:16.092Z,33.83
2023-03-21T02:50:51.583Z,34.50
2023-03-21T02:52:35.877Z,34.11
2023-03-21T02:54:38.252Z,33.85
2023-03-21T02:56:11.108Z,34.37
2023-03-21T02:57:44.001Z,34.35
2023-03-21T02:59:16.336Z,34.01
2023-03-21T03:00:49.409Z,34.22
2023-03-21T03:02:24.097Z,34.24
2023-03-21T03:04:00.003Z,34.47
2023-03-21T03:05:34.768Z,34.40
2023-03-21T03:07:09.246Z,34.28
2023-03-21T03:09:01.266Z,34.06
2023-03-21T03:10:52.624Z,34.67
2023-03-21T03:12:30.563Z,34.58
2023-03-21T03:14:21.072Z,34.58
2023-03-21T03:15:54.909Z,34.22
2023-03-21T03:17:37.691Z,34.38
2023-03-21T03:19:09.812Z,34.05
2023-03-21T03:20:41.484Z,34.54
2023-03-21T03:22:18.039Z,34.57
2023-03-21T03:23:56.210Z,34.81
2023-03-21T03:25:41.580Z,34.47
2023-03-21T03:27:25.155Z,34.53
2023-03-21T03:28:59.535Z,34.47
2023-03-21T03:30:41.163Z,34.71
2023-03-21T03:32:20.094Z,34.93
2023-03-21T03:33:52.712Z,34.62
2023-03-21T03:35:24.740Z,34.49
2023-03-21T03:36:57.159Z,34.95
2023-03-21T03:38:28.930Z,35.13
2023-03-21T03:40:05.034Z,35.38
2023-03-21T03:43:47.158Z,34.90
2023-03-21T03:45:18.832Z,34.53
2023-03-21T03:47:17.354Z,34.85
2023-03-21T03:49:12.301Z,35.22
2023-03-21T03:50:45.715Z,35.18
2023-03-21T03:52:26.798Z,35.24
2023-03-21T03:54:24.886Z,35.37
2023-03-21T03:55:56.527Z,35.05
2023-03-21T03:57:28.184Z,35.40
2023-03-21T03:58:59.740Z,35.21
2023-03-21T04:00:34.273Z,34.85
2023-03-21T04:02:06.360Z,35.74
2023-03-21T04:03:48.423Z,35.06
2023-03-21T04:05:22.221Z,35.24
2023-03-21T04:06:53.831Z,34.97
2023-03-21T04:08:25.292Z,35.31
2023-03-21T04:09:57.863Z,34.48
2023-03-21T04:11:29.420Z,34.61
2023-03-21T04:13:01.203Z,35.00
2023-03-21T04:14:43.991Z,35.76
2023-03-21T04:16:16.604Z,35.77
2023-03-21T04:17:48.100Z,35.51
2023-03-21T04:19:19.654Z,35.53
2023-03-21T04:20:51.563Z,35.86
2023-03-21T04:22:23.182Z,34.96
2023-03-21T04:23:57.718Z,34.94
2023-03-21T04:25:33.804Z,35.23
2023-03-21T04:27:06.027Z,35.77
2023-03-21T04:28:37.696Z,35.05
2023-03-21T04:30:12.164Z,35.51
2023-03-21T04:31:43.893Z,35.65
2023-03-21T04:33:15.538Z,35.31
2023-03-21T04:34:50.385Z,36.14
2023-03-21T04:36:31.435Z,35.12
2023-03-21T04:38:03.335Z,35.83
2023-03-21T04:39:34.995Z,35.41
2023-03-21T04:41:06.693Z,36.21
2023-03-21T04:42:38.296Z,35.61
2023-03-21T04:44:10.514Z,36.18
2023-03-21T04:45:41.989Z,36.49
2023-03-21T04:47:16.222Z,36.29
2023-03-21T04:48:48.030Z,36.61
2023-03-21T04:50:19.690Z,36.17
2023-03-21T04:51:51.589Z,35.81
2023-03-21T04:53:29.625Z,35.95
2023-03-21T04:55:06.392Z,36.66
2023-03-21T04:56:39.473Z,36.71
2023-03-21T04:58:11.143Z,36.02
2023-03-21T04:59:43.147Z,36.97
2023-03-21T05:01:15.237Z,36.77
2023-03-21T05:02:47.443Z,36.55
2023-03-21T05:04:19.047Z,36.93
2023-03-21T05:05:50.986Z,36.53
2023-03-21T05:07:26.423Z,36.38
2023-03-21T05:09:01.692Z,36.80
2023-03-21T05:10:33.461Z,36.99
2023-03-21T05:12:05.125Z,37.02
2023-03-21T05:13:36.878Z,36.72
2023-03-21T05:15:08.809Z,37.10
2023-03-21T05:16:49.039Z,37.26
2023-03-21T05:18:25.113Z,37.45
2023-03-21T05:19:57.085Z,37.31
2023-03-21T05:21:34.297Z,36.85
2023-03-21T05:23:05.714Z,37.33
2023-03-21T05:24:41.901Z,37.18
2023-03-21T05:26:13.784Z,37.28
2023-03-21T05:27:45.509Z,36.95
2023-03-21T05:29:17.820Z,36.80
2023-03-21T05:30:49.498Z,37.14
2023-03-21T05:32:21.516Z,36.98
2023-03-21T05:33:53.225Z,37.39
2023-03-21T05:35:26.832Z,37.39
2023-03-21T05:36:58.918Z,37.14
2023-03-21T05:38:31.606Z,37.10
2023-03-21T05:40:06.460Z,36.97
2023-03-21T05:41:37.937Z,37.39
2023-03-21T05:43:09.747Z,37.66
2023-03-21T05:44:41.191Z,37.53
2023-03-21T05:46:12.786Z,37.84
2023-03-21T05:47:44.473Z,37.84
2023-03-21T05:49:16.465Z,37.67
2023-03-21T05:50:48.002Z,37.99
2023-03-21T05:52:19.552Z,37.98
2023-03-21T05:53:52.024Z,37.81
2023-03-21T05:55:23.527Z,37.65
2023-03-21T05:56:55.448Z,37.45
2023-03-21T05:58:27.052Z,37.40
2023-03-21T05:59:58.659Z,37.82
2023-03-21T06:01:30.943Z,37.47
2023-03-21T06:03:02.889Z,37.96
2023-03-21T06:04:34.588Z,38.04
2023-03-21T06:06:07.025Z,37.88
2023-03-21T06:07:38.875Z,37.64
2023-03-21T06:09:10.882Z,38.10
2023-03-21T06:10:42.566Z,37.03
2023-03-21T06:12:14.074Z,37.43
2023-03-21T06:13:45.958Z,37.17
2023-03-21T06:15:17.543Z,37.44
2023-03-21T06:16:49.173Z,37.63
2023-03-21T06:18:21.076Z,37.49
2023-03-21T06:19:52.823Z,37.59
2023-03-21T06:21:26.713Z,37.44
2023-03-21T06:22:58.502Z,38.52
2023-03-21T06:24:30.743Z,38.56
2023-03-21T06:26:02.440Z,38.23
2023-03-21T06:27:34.739Z,37.82
2023-03-21T06:29:06.490Z,38.29
2023-03-21T06:30:38.106Z,37.84
2023-03-21T06:32:09.745Z,38.05
2023-03-21T06:33:41.488Z,38.33
2023-03-21T06:35:13.199Z,38.25
2023-03-21T06:36:44.974Z,38.59
2023-03-21T06:38:16.569Z,38.33
2023-03-21T06:39:48.216Z,38.30
2023-03-21T06:41:19.769Z,38.29
2023-03-21T06:42:51.533Z,38.27
2023-03-21T06:44:24.620Z,38.40
2023-03-21T06:45:56.181Z,38.19
2023-03-21T06:47:27.912Z,37.96
2023-03-21T06:48:59.603Z,38.01
2023-03-21T06:50:32.002Z,38.13
2023-03-21T06:52:04.058Z,37.87
2023-03-21T06:53:36.299Z,38.05
2023-03-21T06:55:08.185Z,38.25
2023-03-21T06:56:39.761Z,38.02
2023-03-21T06:58:11.606Z,38.01
2023-03-21T06:59:43.305Z,37.61
2023-03-21T07:01:15.090Z,37.70
2023-03-21T07:02:48.301Z,37.73
2023-03-21T07:04:21.021Z,37.58
2023-03-21T07:05:53.021Z,37.17
2023-03-21T07:07:26.286Z,37.35
2023-03-21T07:09:00.033Z,37.25
2023-03-21T07:10:31.808Z,36.99
2023-03-21T07:12:03.468Z,37.26
2023-03-21T07:13:35.121Z,37.34
2023-03-21T07:15:07.090Z,37.07
2023-03-21T07:16:38.799Z,36.70
2023-03-21T07:18:10.535Z,36.88
2023-03-21T07:19:44.698Z,36.68
2023-03-21T07:21:16.476Z,36.82
2023-03-21T07:22:47.997Z,37.11
2023-03-21T07:24:19.626Z,36.56
2023-03-21T07:25:51.443Z,37.06
2023-03-21T07:27:23.042Z,36.58
2023-03-21T07:28:54.799Z,36.59
2023-03-21T07:30:26.547Z,36.85
2023-03-21T07:31:58.124Z,36.90
2023-03-21T07:33:30.153Z,37.01
2023-03-21T07:35:02.428Z,36.47
2023-03-21T07:36:34.031Z,36.95
2023-03-21T07:38:05.699Z,36.68
2023-03-21T07:39:37.352Z,36.85
2023-03-21T07:41:08.964Z,36.60
2023-03-21T07:42:40.801Z,37.01
2023-03-21T07:44:12.535Z,36.80
2023-03-21T07:45:44.423Z,36.60
2023-03-21T07:47:16.168Z,37.00
2023-03-21T07:48:47.732Z,37.10
2023-03-21T07:50:19.440Z,37.08
2023-03-21T07:51:51.157Z,37.13
2023-03-21T07:53:22.814Z,36.94
2023-03-21T07:54:54.771Z,36.76
2023-03-21T07:56:26.816Z,36.71
2023-03-21T07:57:58.710Z,36.98
2023-03-21T07:59:31.187Z,37.11
2023-03-21T08:01:02.797Z,36.89
2023-03-21T08:02:34.410Z,37.12
2023-03-21T08:04:06.773Z,36.98
2023-03-21T08:05:39.289Z,37.16
2023-03-21T08:07:11.093Z,37.23
2023-03-21T08:08:42.578Z,37.35
2023-03-21T08:10:14.189Z,37.38
2023-03-21T08:11:45.835Z,37.43
2023-03-21T08:13:17.464Z,37.46
2023-03-21T08:14:49.114Z,37.40
2023-03-21T08:16:21.137Z,37.19
2023-03-21T08:17:52.720Z,37.07
2023-03-21T08:19:24.262Z,37.20
2023-03-21T08:20:56.984Z,37.01
2023-03-21T08:22:28.628Z,36.68
2023-03-21T08:24:00.288Z,37.31
2023-03-21T08:25:33.006Z,37.39
2023-03-21T08:27:04.519Z,37.38
2023-03-21T08:28:36.887Z,36.92
2023-03-21T08:30:09.724Z,37.41
2023-03-21T08:31:41.635Z,37.00
2023-03-21T08:33:13.741Z,37.22
2023-03-21T08:34:45.789Z,37.11
2023-03-21T08:36:17.795Z,36.85
2023-03-21T08:37:49.590Z,37.10
2023-03-21T08:39:22.022Z,37.43
2023-03-21T08:40:53.843Z,37.01
2023-03-21T08:42:26.672Z,37.19
2023-03-21T08:43:58.448Z,37.46
2023-03-21T08:45:30.305Z,37.26
2023-03-21T08:47:02.424Z,37.17
2023-03-21T08:48:33.968Z,37.04
2023-03-21T08:50:07.254Z,37.22
2023-03-21T08:51:38.962Z,37.13
2023-03-21T08:53:10.784Z,37.60
2023-03-21T08:54:42.935Z,37.57
2023-03-21T08:56:14.587Z,37.40
2023-03-21T08:57:46.767Z,37.38
2023-03-21T08:59:18.379Z,37.55
2023-03-21T09:00:50.119Z,37.23
2023-03-21T09:02:21.792Z,37.55
2023-03-21T09:03:53.388Z,37.23
2023-03-21T09:05:26.824Z,37.59
2023-03-21T09:07:01.876Z,37.38
2023-03-21T09:08:33.682Z,37.34
2023-03-21T09:10:20.712Z,37.35
2023-03-21T09:11:53.153Z,37.21
2023-03-21T09:13:24.931Z,37.27
2023-03-21T09:14:58.983Z,37.14
2023-03-21T09:16:31.317Z,37.10
2023-03-21T09:18:13.633Z,36.84
2023-03-21T09:19:46.672Z,37.06
2023-03-21T09:21:18.515Z,37.09
2023-03-21T09:22:51.041Z,36.66
2023-03-21T09:24:23.034Z,36.94
2023-03-21T09:25:54.831Z,37.02
2023-03-21T09:27:28.433Z,37.15
2023-03-21T09:29:00.987Z,37.35
2023-03-21T09:30:34.025Z,37.21
2023-03-21T09:32:07.239Z,36.89
2023-03-21T09:33:40.692Z,36.87
2023-03-21T09:35:13.184Z,37.01
2023-03-21T09:36:44.920Z,36.80
2023-03-21T09:38:17.292Z,37.07
2023-03-21T09:39:50.793Z,36.97
2023-03-21T09:41:28.559Z,36.73
2023-03-21T09:43:03.991Z,36.56
2023-03-21T09:44:53.773Z,36.60
2023-03-21T09:46:28.025Z,36.60
2023-03-21T09:48:00.007Z,36.65
2023-03-21T09:49:33.036Z,36.47
2023-03-21T09:51:04.960Z,36.50
2023-03-21T09:52:37.195Z,36.44
2023-03-21T09:54:13.937Z,36.41
2023-03-21T09:55:45.987Z,36.35
2023-03-21T09:57:21.114Z,36.39
2023-03-21T09:58:54.832Z,36.29
2023-03-21T10:00:31.121Z,36.27
2023-03-21T10:02:03.497Z,36.19
2023-03-21T10:03:37.946Z,36.23
2023-03-21T10:05:23.773Z,36.16
2023-03-21T10:06:57.942Z,36.06
2023-03-21T10:08:32.262Z,36.15
2023-03-21T10:10:04.774Z,36.26
2023-03-21T10:11:42.548Z,36.04
2023-03-21T10:13:15.390Z,35.98
2023-03-21T10:14:58.112Z,36.09
2023-03-21T10:16:31.284Z,35.87
2023-03-21T10:18:03.548Z,35.81
2023-03-21T10:19:35.080Z,35.89
2023-03-21T10:21:06.860Z,35.77
2023-03-21T10:22:38.455Z,35.54
2023-03-21T10:24:12.107Z,35.49
2023-03-21T10:25:46.062Z,35.47
2023-03-21T10:27:18.635Z,35.32
2023-03-21T10:28:53.410Z,35.24
2023-03-21T10:30:31.096Z,34.99
2023-03-21T10:32:02.900Z,34.93
2023-03-21T10:33:35.886Z,35.13
2023-03-21T10:35:09.505Z,34.92
2023-03-21T10:36:43.829Z,34.88
2023-03-21T10:38:19.411Z,34.82
2023-03-21T10:39:52.655Z,34.68
2023-03-21T10:41:24.219Z,34.82
2023-03-21T10:42:56.852Z,34.69
2023-03-21T10:44:31.909Z,34.57
2023-03-21T10:46:12.373Z,34.71
2023-03-21T10:47:46.024Z,34.61
2023-03-21T10:49:19.105Z,34.92
2023-03-21T10:50:52.052Z,34.51
2023-03-21T10:52:23.697Z,34.32
2023-03-21T10:53:55.666Z,34.24
2023-03-21T10:55:31.489Z,34.02
2023-03-21T10:57:05.181Z,33.77
2023-03-21T10:58:39.436Z,34.06
2023-03-21T11:00:17.180Z,33.74
2023-03-21T11:01:49.476Z,33.62
2023-03-21T11:03:21.996Z,33.40
2023-03-21T11:04:54.097Z,33.52
2023-03-21T11:06:30.916Z,33.33
2023-03-21T11:08:12.573Z,33.43
2023-03-21T11:09:46.299Z,33.00
2023-03-21T11:11:22.280Z,33.16
2023-03-21T11:12:56.398Z,33.17
2023-03-21T11:14:37.200Z,33.09
2023-03-21T11:16:10.192Z,32.82
2023-03-21T11:17:42.317Z,33.03
2023-03-21T11:19:15.452Z,32.60
2023-03-21T11:20:51.304Z,32.56
2023-03-21T11:22:23.999Z,32.66
2023-03-21T11:23:57.326Z,32.66
2023-03-21T11:25:34.369Z,32.41
2023-03-21T11:27:06.437Z,32.63
2023-03-21T11:28:44.630Z,32.35
2023-03-21T11:30:23.426Z,32.57
2023-03-21T11:31:59.265Z,32.47
2023-03-21T11:33:36.617Z,32.47
2023-03-21T11:35:14.368Z,32.27
2023-03-21T11:36:46.001Z,32.19
2023-03-21T11:38:27.793Z,32.30
2023-03-21T11:40:25.709Z,32.27
2023-03-21T11:41:57.556Z,32.18
2023-03-21T11:43:29.343Z,31.98
2023-03-21T11:45:02.783Z,31.80
2023-03-21T11:46:34.751Z,31.81
2023-03-21T11:48:11.840Z,31.92
2023-03-21T11:49:43.686Z,31.57
2023-03-21T11:51:41.310Z,31.74
2023-03-21T11:53:28.190Z,31.52
2023-03-21T11:55:28.904Z,31.50
2023-03-21T11:57:02.762Z,31.49
2023-03-21T11:58:52.879Z,31.48
2023-03-21T12:00:26.205Z,31.42
2023-03-21T12:02:06.474Z,31.32
2023-03-21T12:03:47.445Z,31.21
2023-03-21T12:05:21.920Z,31.24
2023-03-21T12:06:55.425Z,31.15
2023-03-21T12:08:31.974Z,31.27
2023-03-21T12:10:06.809Z,31.20
2023-03-21T12:11:41.636Z,31.14
2023-03-21T12:13:15.940Z,31.00
2023-03-21T12:14:47.670Z,30.88
2023-03-21T12:16:19.450Z,30.96
2023-03-21T12:17:51.150Z,30.87
2023-03-21T12:19:32.080Z,31.21
2023-03-21T12:21:18.971Z,30.96
2023-03-21T12:22:54.047Z,31.03
2023-03-21T12:24:29.950Z,30.91
2023-03-21T12:26:04.509Z,31.09
2023-03-21T12:27:42.483Z,31.04
2023-03-21T12:29:33.785Z,31.00
2023-03-21T12:31:11.464Z,30.98
2023-03-21T12:33:02.143Z,31.23
2023-03-21T12:34:39.704Z,31.24
2023-03-21T12:36:11.534Z,31.00
2023-03-21T12:38:02.444Z,30.99
2023-03-21T12:39:37.538Z,30.83
2023-03-21T12:41:12.118Z,30.93
2023-03-21T12:42:43.609Z,30.71
2023-03-21T12:44:16.291Z,30.71
2023-03-21T12:45:49.314Z,30.74
2023-03-21T12:47:22.329Z,30.74
2023-03-21T12:49:02.621Z,30.71
2023-03-21T12:50:37.718Z,30.59
2023-03-21T12:52:16.717Z,30.46
2023-03-21T12:53:53.401Z,30.55
2023-03-21T12:55:25.828Z,30.48
2023-03-21T12:56:58.980Z,30.43
2023-03-21T12:58:30.586Z,30.42
2023-03-21T13:00:14.566Z,30.46
2023-03-21T13:01:47.294Z,30.32
2023-03-21T13:03:37.406Z,30.70
2023-03-21T13:05:16.918Z,30.65
2023-03-21T13:06:48.717Z,30.57
2023-03-21T13:08:28.039Z,30.52
2023-03-21T13:10:02.280Z,30.25
2023-03-21T13:11:34.066Z,30.17
2023-03-21T13:13:10.092Z,30.40
2023-03-21T13:15:02.629Z,30.45
2023-03-21T13:16:41.742Z,30.23
2023-03-21T13:18:17.810Z,30.27
2023-03-21T13:19:56.401Z,30.48
2023-03-21T13:21:46.423Z,30.15
2023-03-21T13:23:19.062Z,30.21
2023-03-21T13:24:51.296Z,30.30
2023-03-21T13:26:31.459Z,30.20
2023-03-21T13:28:04.065Z,30.29
2023-03-21T13:29:42.779Z,30.40
2023-03-21T13:31:26.381Z,30.21
2023-03-21T13:33:40.044Z,30.16
2023-03-21T13:35:17.450Z,29.99
2023-03-21T13:36:49.485Z,30.02
2023-03-21T13:38:26.979Z,29.88
2023-03-21T13:40:13.015Z,29.91
2023-03-21T13:41:47.321Z,29.91
2023-03-21T13:43:31.073Z,30.00
2023-03-21T13:45:03.798Z,30.00
2023-03-21T13:46:52.211Z,30.03
2023-03-21T13:48:28.012Z,30.03
2023-03-21T13:50:18.147Z,29.75
2023-03-21T13:51:53.572Z,29.79
2023-03-21T13:53:25.447Z,29.86
2023-03-21T13:54:57.246Z,29.81
2023-03-21T13:56:30.585Z,29.71
2023-03-21T13:58:22.220Z,29.83
2023-03-21T14:00:13.928Z,29.79
2023-03-21T14:01:58.223Z,29.80
2023-03-21T14:03:31.484Z,29.84
2023-03-21T14:05:07.337Z,29.65
2023-03-21T14:06:47.653Z,29.49
2023-03-21T14:08:31.276Z,29.67
2023-03-21T14:10:07.511Z,29.72
2023-03-21T14:11:44.410Z,29.77
2023-03-21T14:13:19.586Z,29.80
2023-03-21T14:14:52.264Z,29.57
2023-03-21T14:16:25.385Z,29.77
2023-03-21T14:17:58.066Z,30.00
2023-03-21T14:19:31.148Z,30.22
2023-03-21T14:21:05.104Z,30.32
2023-03-21T14:22:37.177Z,30.51
2023-03-21T14:24:12.652Z,30.65
2023-03-21T14:25:47.747Z,30.65
2023-03-21T14:27:20.327Z,30.97
2023-03-21T14:28:52.761Z,31.16
2023-03-21T14:30:25.548Z,31.15
2023-03-21T14:31:57.426Z,31.23
2023-03-21T14:33:41.841Z,31.22
2023-03-21T14:35:13.684Z,31.51
2023-03-21T14:36:51.742Z,31.44
2023-03-21T14:38:32.944Z,31.48
2023-03-21T14:40:09.297Z,31.48
2023-03-21T14:41:51.407Z,31.75
2023-03-21T14:43:23.664Z,31.89
2023-03-21T14:45:00.783Z,31.90
2023-03-21T14:46:33.879Z,32.19
2023-03-21T14:48:10.843Z,32.45
2023-03-21T14:49:42.676Z,32.54
2023-03-21T14:51:14.448Z,32.70
2023-03-21T14:52:48.529Z,32.51
2023-03-21T14:54:20.757Z,32.96
2023-03-21T14:55:59.589Z,33.01
2023-03-21T14:57:31.972Z,33.25
2023-03-21T14:59:03.619Z,33.27
2023-03-21T15:00:35.811Z,33.43
2023-03-21T15:02:27.146Z,33.47
2023-03-21T15:04:00.594Z,33.47
2023-03-21T15:05:33.255Z,33.81
2023-03-21T15:07:06.330Z,33.51
2023-03-21T15:08:40.016Z,33.77
2023-03-21T15:10:31.971Z,34.23
2023-03-21T15:13:57.396Z,34.04
2023-03-21T15:15:33.940Z,34.20
2023-03-21T15:17:37.244Z,34.58
2023-03-21T15:19:11.403Z,34.48
2023-03-21T15:20:44.092Z,34.82
2023-03-21T15:22:22.785Z,34.83
2023-03-21T15:23:56.282Z,34.81
2023-03-21T15:25:28.929Z,35.31
2023-03-21T15:27:01.742Z,35.21
2023-03-21T15:28:33.608Z,35.35
2023-03-21T15:30:05.794Z,35.68
2023-03-21T15:31:40.048Z,36.04
2023-03-21T15:33:13.075Z,36.10
2023-03-21T15:34:45.116Z,36.31
2023-03-21T15:36:24.169Z,36.00
2023-03-21T15:37:57.009Z,36.43
2023-03-21T15:39:29.665Z,36.39
2023-03-21T15:41:16.633Z,36.21
2023-03-21T15:42:48.227Z,36.25
2023-03-21T15:44:20.073Z,36.22
2023-03-21T15:45:54.565Z,36.66
2023-03-21T15:47:44.794Z,36.36
2023-03-21T15:49:16.532Z,36.85
2023-03-21T15:50:51.081Z,37.11
2023-03-21T15:52:22.610Z,36.90
2023-03-21T15:53:57.163Z,37.22
2023-03-21T15:55:30.162Z,37.29
2023-03-21T15:57:05.105Z,37.37
2023-03-21T15:58:37.616Z,37.34
2023-03-21T16:00:21.089Z,37.45
2023-03-21T16:01:52.813Z,37.88
2023-03-21T16:03:28.218Z,37.92
2023-03-21T16:05:01.302Z,38.19
2023-03-21T16:06:34.087Z,38.00
2023-03-21T16:08:09.766Z,38.43
2023-03-21T16:09:46.164Z,38.57
2023-03-21T16:11:17.762Z,38.39
2023-03-21T16:12:49.428Z,38.57
2023-03-21T16:14:21.817Z,38.33
2023-03-21T16:15:53.497Z,38.33
2023-03-21T16:17:38.026Z,38.33
2023-03-21T16:19:09.802Z,38.40
2023-03-21T16:20:42.765Z,38.34
2023-03-21T16:22:14.681Z,38.33
2023-03-21T16:23:46.499Z,38.46
2023-03-21T16:25:18.715Z,38.74
2023-03-21T16:26:54.226Z,38.96
2023-03-21T16:28:26.132Z,38.63
2023-03-21T16:29:57.842Z,38.98
2023-03-21T16:31:30.269Z,39.07
2023-03-21T16:33:02.107Z,39.54
2023-03-21T16:34:34.116Z,39.70
2023-03-21T16:36:07.652Z,39.44
2023-03-21T16:37:39.268Z,39.72
2023-03-21T16:39:20.817Z,39.80
2023-03-21T16:40:52.692Z,39.54
2023-03-21T16:42:24.315Z,39.50
2023-03-21T16:43:55.973Z,39.54
2023-03-21T16:45:29.386Z,39.42
2023-03-21T16:47:02.488Z,39.58
2023-03-21T16:48:35.126Z,39.79
2023-03-21T16:50:23.187Z,39.62
2023-03-21T16:51:55.679Z,39.85
2023-03-21T16:53:28.172Z,39.69
2023-03-21T16:54:59.949Z,39.84
2023-03-21T16:56:38.968Z,39.99
2023-03-21T16:58:11.396Z,40.10
2023-03-21T16:59:43.246Z,40.13
2023-03-21T17:01:19.461Z,40.56
2023-03-21T17:02:52.159Z,40.29
2023-03-21T17:04:24.984Z,40.45
2023-03-21T17:05:56.978Z,40.68
2023-03-21T17:07:28.695Z,40.46
2023-03-21T17:09:00.751Z,40.53
2023-03-21T17:10:33.068Z,40.53
2023-03-21T17:12:06.338Z,40.56
2023-03-21T17:13:37.994Z,40.66
2023-03-21T17:15:10.706Z,40.77
2023-03-21T17:16:43.211Z,40.85
2023-03-21T17:18:15.041Z,41.13
2023-03-21T17:19:47.453Z,41.03
2023-03-21T17:21:20.126Z,41.01
2023-03-21T17:22:52.150Z,41.33
2023-03-21T17:24:24.202Z,41.29
2023-03-21T17:25:56.264Z,41.26
2023-03-21T17:27:27.854Z,41.09
2023-03-21T17:29:00.118Z,40.92
2023-03-21T17:30:32.973Z,41.13
2023-03-21T17:32:04.698Z,41.05
2023-03-21T17:33:36.495Z,40.89
2023-03-21T17:35:08.270Z,40.92
2023-03-21T17:36:40.859Z,41.06
2023-03-21T17:38:14.171Z,41.00
2023-03-21T17:39:46.323Z,41.09
2023-03-21T17:41:18.867Z,41.16
2023-03-21T17:42:51.086Z,41.53
2023-03-21T17:44:26.088Z,41.79
2023-03-21T17:45:59.012Z,41.72
2023-03-21T17:47:31.354Z,41.90
2023-03-21T17:49:03.282Z,41.77
2023-03-21T17:50:37.537Z,41.80
2023-03-21T17:52:10.441Z,42.06
2023-03-21T17:53:51.719Z,42.38
2023-03-21T17:55:23.279Z,42.00
2023-03-21T17:56:56.726Z,42.33
2023-03-21T17:58:28.537Z,42.40
2023-03-21T18:00:00.272Z,42.57
2023-03-21T18:01:32.084Z,42.62
2023-03-21T18:03:04.041Z,42.45
2023-03-21T18:04:35.892Z,42.54
2023-03-21T18:06:07.947Z,42.70
2023-03-21T18:09:34.505Z,42.81
2023-03-21T18:11:16.395Z,42.87
2023-03-21T18:12:48.132Z,42.84
2023-03-21T18:14:27.917Z,43.00
2023-03-21T18:16:00.585Z,43.06
2023-03-21T18:17:32.615Z,43.09
2023-03-21T18:19:04.364Z,43.24
2023-03-21T18:20:51.811Z,43.32
2023-03-21T18:22:24.553Z,43.72
2023-03-21T18:23:56.497Z,43.70
2023-03-21T18:25:28.455Z,43.69
2023-03-21T18:27:00.103Z,43.91
2023-03-21T18:28:31.904Z,43.75
2023-03-21T18:30:41.106Z,43.72
2023-03-21T18:32:08.831Z,43.69
2023-03-21T18:33:41.107Z,43.48
2023-03-21T18:35:13.365Z,43.64
2023-03-21T18:36:45.331Z,43.38
2023-03-21T18:38:18.128Z,43.58
2023-03-21T18:39:52.972Z,43.44
2023-03-21T18:41:24.692Z,43.62
2023-03-21T18:43:49.907Z,43.72
2023-03-21T18:44:49.141Z,44.08
2023-03-21T18:46:21.387Z,44.05
2023-03-21T18:47:53.101Z,43.83
2023-03-21T18:50:05.841Z,44.10
2023-03-21T18:51:17.746Z,43.96
2023-03-21T18:52:49.334Z,43.97
2023-03-21T18:54:21.656Z,43.95
2023-03-21T18:55:53.513Z,44.09
2023-03-21T18:57:36.477Z,44.09
2023-03-21T18:59:09.643Z,44.16
2023-03-21T19:00:42.816Z,44.09
2023-03-21T19:02:14.841Z,44.22
2023-03-21T19:04:11.622Z,44.37
2023-03-21T19:05:40.990Z,44.24
2023-03-21T19:07:12.912Z,44.43
2023-03-21T19:08:44.598Z,44.49
2023-03-21T19:10:19.444Z,44.46
2023-03-21T19:11:52.067Z,44.83
2023-03-21T19:13:23.816Z,44.83
2023-03-21T19:14:55.788Z,45.08
2023-03-21T19:16:31.505Z,45.08
2023-03-21T19:20:02.546Z,45.22
2023-03-21T19:21:34.190Z,45.24
2023-03-21T19:23:08.201Z,45.29
2023-03-21T19:24:41.438Z,45.44
2023-03-21T19:26:13.153Z,45.30
2023-03-21T19:27:44.876Z,45.21
2023-03-21T19:29:16.667Z,45.38
2023-03-21T19:30:50.648Z,45.59
2023-03-21T19:32:22.906Z,45.78
2023-03-21T19:33:54.514Z,45.80
2023-03-21T19:35:27.140Z,45.93
2023-03-21T19:37:02.477Z,45.83
2023-03-21T19:38:34.287Z,46.17
2023-03-21T19:40:06.428Z,45.94
2023-03-21T19:41:39.951Z,45.96
2023-03-21T19:43:31.724Z,46.01
2023-03-21T19:45:05.858Z,46.02
2023-03-21T19:46:37.520Z,46.00
2023-03-21T19:48:09.311Z,46.13
2023-03-21T19:51:33.628Z,46.20
2023-03-21T19:53:05.512Z,46.01
2023-03-21T19:54:37.732Z,46.17
2023-03-21T19:56:20.690Z,46.14
2023-03-21T19:57:54.877Z,46.16
2023-03-21T19:59:26.580Z,46.32
2023-03-21T20:00:58.359Z,46.56
2023-03-21T20:02:37.493Z,46.36
2023-03-21T20:04:09.396Z,46.23
2023-03-21T20:05:41.241Z,46.44
2023-03-21T20:07:12.961Z,46.45
2023-03-21T20:10:36.447Z,46.70
2023-03-21T20:12:09.089Z,46.94
2023-03-21T20:13:41.139Z,46.71
2023-03-21T20:15:18.714Z,47.02
2023-03-21T20:16:55.337Z,46.79
2023-03-21T20:18:27.371Z,46.93
2023-03-21T20:20:00.296Z,46.83
2023-03-21T20:21:40.346Z,47.03
2023-03-21T20:23:16.893Z,47.00
2023-03-21T20:24:48.759Z,47.02
2023-03-21T20:26:20.490Z,47.17
2023-03-21T20:28:10.497Z,47.15
2023-03-21T20:31:35.972Z,47.24
2023-03-21T20:33:08.364Z,47.31
2023-03-21T20:34:40.350Z,47.42
2023-03-21T20:38:04.086Z,47.31
2023-03-21T20:39:36.088Z,47.48
2023-03-21T20:41:07.680Z,47.78
2023-03-21T20:42:39.892Z,47.48
2023-03-21T20:44:42.152Z,47.71
2023-03-21T20:46:10.800Z,47.50
2023-03-21T20:47:42.793Z,47.77
2023-03-21T20:49:15.489Z,47.75
2023-03-21T20:50:47.214Z,47.45
2023-03-21T20:54:11.419Z,47.82